Pagrindinis puslapis
METAR-TAF:

METAR-TAF

Oro uostai :

Rioača, Kolumbija

platuma: 11-32N, ilguma: 072-56W, Aukštis: 4 m

Dabartinis oras

Ataskaita buvo paskelbta 1 valandą ir 5 minutes, ne 23:00 UTC
Vėjas 5 kt iš Šiaurės Rytų
Temperatūra 29°C
Drėgmė 74%
Slėgis 1009 hPa
Matomumas 10 km arba daugiau
Mažai debesys ne aukštis 1500 ft
Su prošvaistėmis ne aukštis 20000 ft

METAR: SKRH 222300Z 04005KT 9999 FEW015 BKN200 29/24 A2980

Laikas: 19:05 (00:05 UTC)


TAF: trūkstamas

Orai ataskaitas ir orų prognozės (METAR, TAF).

turimą stotys yra geltonos ir raudonos taškus žemėlapyje.

Perkelti pele per norėdami pamatyti stoties vardą.

Tada spustelėkite, norėdami matyti oro stebėjimo ir prognozės.

Norėdami pakeisti žemėlapį: spustelėkite ant žalios mygtukų su juodo kryžiaus žemyn,; žalią mygtuką su brūkšneliu, jei norite nutolinti; arba žalių rodyklių gretimoms žemėlapius.


METAR-TAF: